sensor_id;sensor_type;location;lat;lon;timestamp;pressure;altitude;pressure_sealevel;temperature;humidity
62881;BME280;48969;49.934;8.596;2023-07-08T00:00:41;100616.72;;;21.45;59.35
62881;BME280;48969;49.934;8.596;2023-07-08T00:03:07;100618.44;;;21.55;59.26
62881;BME280;48969;49.934;8.596;2023-07-08T00:05:33;100610.56;;;21.61;58.77
62881;BME280;48969;49.934;8.596;2023-07-08T00:07:58;100612.56;;;21.59;58.10
62881;BME280;48969;49.934;8.596;2023-07-08T00:10:25;100607.28;;;21.49;57.24
62881;BME280;48969;49.934;8.596;2023-07-08T00:12:53;100625.41;;;21.39;59.30
62881;BME280;48969;49.934;8.596;2023-07-08T00:15:21;100612.16;;;21.46;58.79
62881;BME280;48969;49.934;8.596;2023-07-08T00:17:47;100628.22;;;21.29;60.88
62881;BME280;48969;49.934;8.596;2023-07-08T00:20:46;100620.38;;;21.18;60.68
62881;BME280;48969;49.934;8.596;2023-07-08T00:23:12;100615.41;;;21.31;60.12
62881;BME280;48969;49.934;8.596;2023-07-08T00:25:38;100617.50;;;21.38;60.15
62881;BME280;48969;49.934;8.596;2023-07-08T00:30:35;100604.69;;;21.40;59.55
62881;BME280;48969;49.934;8.596;2023-07-08T00:33:00;100610.31;;;21.46;58.99
62881;BME280;48969;49.934;8.596;2023-07-08T00:35:39;100616.03;;;21.43;59.30
62881;BME280;48969;49.934;8.596;2023-07-08T00:40:52;100603.47;;;21.34;58.49
62881;BME280;48969;49.934;8.596;2023-07-08T00:43:24;100589.38;;;21.40;57.44
62881;BME280;48969;49.934;8.596;2023-07-08T00:45:53;100598.66;;;21.20;56.99
62881;BME280;48969;49.934;8.596;2023-07-08T00:48:29;100599.06;;;20.81;57.86
62881;BME280;48969;49.934;8.596;2023-07-08T00:50:56;100607.66;;;20.48;59.55
62881;BME280;48969;49.934;8.596;2023-07-08T00:53:40;100611.75;;;20.35;59.52
62881;BME280;48969;49.934;8.596;2023-07-08T00:56:24;100612.72;;;20.34;59.72
62881;BME280;48969;49.934;8.596;2023-07-08T00:58:56;100624.34;;;20.52;61.18
62881;BME280;48969;49.934;8.596;2023-07-08T01:01:23;100614.91;;;20.66;59.71
62881;BME280;48969;49.934;8.596;2023-07-08T01:03:56;100626.44;;;20.40;59.17
62881;BME280;48969;49.934;8.596;2023-07-08T01:06:26;100625.00;;;20.18;59.43
62881;BME280;48969;49.934;8.596;2023-07-08T01:08:57;100629.56;;;20.18;60.17
62881;BME280;48969;49.934;8.596;2023-07-08T01:11:24;100634.56;;;20.13;59.93
62881;BME280;48969;49.934;8.596;2023-07-08T01:13:50;100631.63;;;20.06;60.02
62881;BME280;48969;49.934;8.596;2023-07-08T01:16:17;100642.88;;;20.19;60.58
62881;BME280;48969;49.934;8.596;2023-07-08T01:18:42;100626.63;;;20.11;59.30
62881;BME280;48969;49.934;8.596;2023-07-08T01:21:37;100638.22;;;19.94;59.36
62881;BME280;48969;49.934;8.596;2023-07-08T01:24:06;100644.13;;;19.97;60.08
62881;BME280;48969;49.934;8.596;2023-07-08T01:26:34;100639.38;;;19.81;60.21
62881;BME280;48969;49.934;8.596;2023-07-08T01:29:01;100642.13;;;19.72;60.30
62881;BME280;48969;49.934;8.596;2023-07-08T01:31:28;100638.75;;;19.60;60.95
62881;BME280;48969;49.934;8.596;2023-07-08T01:33:54;100632.28;;;19.43;62.05
62881;BME280;48969;49.934;8.596;2023-07-08T01:36:20;100637.44;;;19.17;63.00
62881;BME280;48969;49.934;8.596;2023-07-08T01:38:45;100635.78;;;18.87;63.92
62881;BME280;48969;49.934;8.596;2023-07-08T01:41:13;100628.41;;;18.69;63.57
62881;BME280;48969;49.934;8.596;2023-07-08T01:43:39;100626.28;;;18.73;63.87
62881;BME280;48969;49.934;8.596;2023-07-08T01:46:12;100620.94;;;18.73;63.76
62881;BME280;48969;49.934;8.596;2023-07-08T01:48:40;100612.47;;;18.77;63.21
62881;BME280;48969;49.934;8.596;2023-07-08T01:51:08;100608.22;;;18.85;61.82
62881;BME280;48969;49.934;8.596;2023-07-08T01:53:39;100609.63;;;18.98;60.98
62881;BME280;48969;49.934;8.596;2023-07-08T01:56:06;100602.22;;;19.10;60.58
62881;BME280;48969;49.934;8.596;2023-07-08T01:58:32;100594.16;;;19.10;60.32
62881;BME280;48969;49.934;8.596;2023-07-08T02:00:57;100597.16;;;19.07;60.43
62881;BME280;48969;49.934;8.596;2023-07-08T02:03:26;100590.06;;;19.06;60.69
62881;BME280;48969;49.934;8.596;2023-07-08T02:05:51;100591.94;;;18.96;60.93
62881;BME280;48969;49.934;8.596;2023-07-08T02:08:17;100599.56;;;19.00;60.99
62881;BME280;48969;49.934;8.596;2023-07-08T02:10:44;100601.38;;;19.10;60.66
62881;BME280;48969;49.934;8.596;2023-07-08T02:13:10;100602.09;;;19.12;60.56
62881;BME280;48969;49.934;8.596;2023-07-08T02:15:35;100601.66;;;19.07;60.52
62881;BME280;48969;49.934;8.596;2023-07-08T02:18:00;100595.34;;;18.98;60.98
62881;BME280;48969;49.934;8.596;2023-07-08T02:20:26;100595.50;;;18.87;61.35
62881;BME280;48969;49.934;8.596;2023-07-08T02:22:51;100587.84;;;18.92;61.70
62881;BME280;48969;49.934;8.596;2023-07-08T02:25:17;100587.13;;;18.90;61.49
62881;BME280;48969;49.934;8.596;2023-07-08T02:27:42;100584.31;;;18.91;61.22
62881;BME280;48969;49.934;8.596;2023-07-08T02:30:09;100590.13;;;18.87;60.79
62881;BME280;48969;49.934;8.596;2023-07-08T02:32:34;100584.75;;;18.87;60.65
62881;BME280;48969;49.934;8.596;2023-07-08T02:35:01;100589.53;;;18.83;60.86
62881;BME280;48969;49.934;8.596;2023-07-08T02:37:28;100580.63;;;18.83;60.80
62881;BME280;48969;49.934;8.596;2023-07-08T02:39:53;100585.44;;;18.79;60.82
62881;BME280;48969;49.934;8.596;2023-07-08T02:42:18;100584.88;;;18.75;60.66
62881;BME280;48969;49.934;8.596;2023-07-08T02:44:44;100581.47;;;18.73;60.66
62881;BME280;48969;49.934;8.596;2023-07-08T02:47:09;100592.91;;;18.75;60.30
62881;BME280;48969;49.934;8.596;2023-07-08T02:49:34;100602.13;;;18.83;60.04
62881;BME280;48969;49.934;8.596;2023-07-08T02:51:59;100597.59;;;18.93;59.89
62881;BME280;48969;49.934;8.596;2023-07-08T02:54:25;100609.47;;;18.90;59.80
62881;BME280;48969;49.934;8.596;2023-07-08T02:56:50;100609.63;;;18.89;59.75
62881;BME280;48969;49.934;8.596;2023-07-08T02:59:15;100608.91;;;18.77;59.70
62881;BME280;48969;49.934;8.596;2023-07-08T03:01:40;100609.47;;;18.71;59.92
62881;BME280;48969;49.934;8.596;2023-07-08T03:04:11;100614.69;;;18.72;59.89
62881;BME280;48969;49.934;8.596;2023-07-08T03:06:39;100614.16;;;18.78;60.24
62881;BME280;48969;49.934;8.596;2023-07-08T03:09:05;100609.03;;;18.75;60.15
62881;BME280;48969;49.934;8.596;2023-07-08T03:11:31;100610.31;;;18.71;60.01
62881;BME280;48969;49.934;8.596;2023-07-08T03:13:56;100618.50;;;18.70;59.95
62881;BME280;48969;49.934;8.596;2023-07-08T03:16:21;100616.09;;;18.67;59.88
62881;BME280;48969;49.934;8.596;2023-07-08T03:18:47;100627.13;;;18.73;59.92
62881;BME280;48969;49.934;8.596;2023-07-08T03:21:14;100620.63;;;18.76;59.81
62881;BME280;48969;49.934;8.596;2023-07-08T03:23:40;100623.06;;;18.79;59.30
62881;BME280;48969;49.934;8.596;2023-07-08T03:26:06;100622.06;;;18.80;59.42
62881;BME280;48969;49.934;8.596;2023-07-08T03:28:31;100629.69;;;18.75;59.60
62881;BME280;48969;49.934;8.596;2023-07-08T03:30:57;100628.69;;;18.76;59.67
62881;BME280;48969;49.934;8.596;2023-07-08T03:33:22;100636.59;;;18.68;60.03
62881;BME280;48969;49.934;8.596;2023-07-08T03:35:47;100635.22;;;18.64;60.51
62881;BME280;48969;49.934;8.596;2023-07-08T03:38:13;100646.63;;;18.46;61.22
62881;BME280;48969;49.934;8.596;2023-07-08T03:40:38;100642.50;;;18.32;61.77
62881;BME280;48969;49.934;8.596;2023-07-08T03:43:03;100641.09;;;18.28;62.18
62881;BME280;48969;49.934;8.596;2023-07-08T03:45:29;100644.47;;;18.30;62.21
62881;BME280;48969;49.934;8.596;2023-07-08T03:47:54;100644.66;;;18.38;62.11
62881;BME280;48969;49.934;8.596;2023-07-08T03:50:22;100645.50;;;18.49;61.71
62881;BME280;48969;49.934;8.596;2023-07-08T03:52:49;100641.56;;;18.53;61.55
62881;BME280;48969;49.934;8.596;2023-07-08T03:55:15;100646.09;;;18.52;60.78
62881;BME280;48969;49.934;8.596;2023-07-08T03:57:41;100639.13;;;18.40;61.01
62881;BME280;48969;49.934;8.596;2023-07-08T04:00:07;100633.50;;;18.43;61.35
62881;BME280;48969;49.934;8.596;2023-07-08T04:02:40;100631.78;;;18.42;61.54
62881;BME280;48969;49.934;8.596;2023-07-08T04:05:06;100630.38;;;18.48;61.44
62881;BME280;48969;49.934;8.596;2023-07-08T04:07:33;100623.31;;;18.56;61.20
62881;BME280;48969;49.934;8.596;2023-07-08T04:09:58;100623.47;;;18.65;60.53
62881;BME280;48969;49.934;8.596;2023-07-08T04:12:24;100626.28;;;18.73;61.49
62881;BME280;48969;49.934;8.596;2023-07-08T04:14:49;100622.50;;;18.85;60.90
62881;BME280;48969;49.934;8.596;2023-07-08T04:17:15;100620.78;;;18.94;60.58
62881;BME280;48969;49.934;8.596;2023-07-08T04:19:42;100634.78;;;19.07;60.44
62881;BME280;48969;49.934;8.596;2023-07-08T04:22:09;100634.47;;;19.20;59.90
62881;BME280;48969;49.934;8.596;2023-07-08T04:24:35;100634.72;;;19.27;60.08
62881;BME280;48969;49.934;8.596;2023-07-08T04:27:01;100627.94;;;19.32;60.31
62881;BME280;48969;49.934;8.596;2023-07-08T04:29:26;100624.78;;;19.47;59.77
62881;BME280;48969;49.934;8.596;2023-07-08T04:31:51;100615.13;;;19.54;58.84
62881;BME280;48969;49.934;8.596;2023-07-08T04:34:17;100622.66;;;19.40;58.92
62881;BME280;48969;49.934;8.596;2023-07-08T04:36:43;100619.69;;;19.34;58.83
62881;BME280;48969;49.934;8.596;2023-07-08T04:39:09;100616.75;;;19.37;59.30
62881;BME280;48969;49.934;8.596;2023-07-08T04:41:37;100623.97;;;19.36;58.83
62881;BME280;48969;49.934;8.596;2023-07-08T04:44:09;100623.69;;;19.30;59.35
62881;BME280;48969;49.934;8.596;2023-07-08T04:46:38;100622.56;;;19.32;59.19
62881;BME280;48969;49.934;8.596;2023-07-08T04:49:06;100632.03;;;19.36;59.02
62881;BME280;48969;49.934;8.596;2023-07-08T04:51:32;100633.28;;;19.42;59.16
62881;BME280;48969;49.934;8.596;2023-07-08T04:53:58;100626.88;;;19.53;58.60
62881;BME280;48969;49.934;8.596;2023-07-08T04:56:26;100639.31;;;19.54;58.76
62881;BME280;48969;49.934;8.596;2023-07-08T04:58:59;100658.41;;;19.70;61.09
62881;BME280;48969;49.934;8.596;2023-07-08T05:01:25;100668.25;;;19.89;62.59
62881;BME280;48969;49.934;8.596;2023-07-08T05:03:51;100639.81;;;20.04;59.02
62881;BME280;48969;49.934;8.596;2023-07-08T05:06:17;100637.34;;;20.21;56.80
62881;BME280;48969;49.934;8.596;2023-07-08T05:08:42;100628.38;;;20.30;56.36
62881;BME280;48969;49.934;8.596;2023-07-08T05:11:07;100635.56;;;20.30;56.11
62881;BME280;48969;49.934;8.596;2023-07-08T05:13:32;100632.03;;;20.29;55.93
62881;BME280;48969;49.934;8.596;2023-07-08T05:15:58;100629.94;;;20.23;56.11
62881;BME280;48969;49.934;8.596;2023-07-08T05:18:23;100634.09;;;20.17;55.59
62881;BME280;48969;49.934;8.596;2023-07-08T05:20:52;100631.41;;;20.17;56.03
62881;BME280;48969;49.934;8.596;2023-07-08T05:23:17;100633.09;;;20.18;55.88
62881;BME280;48969;49.934;8.596;2023-07-08T05:25:43;100624.88;;;20.20;55.27
62881;BME280;48969;49.934;8.596;2023-07-08T05:28:08;100625.44;;;20.23;55.17
62881;BME280;48969;49.934;8.596;2023-07-08T05:30:35;100622.09;;;20.30;55.14
62881;BME280;48969;49.934;8.596;2023-07-08T05:33:02;100616.66;;;20.39;53.79
62881;BME280;48969;49.934;8.596;2023-07-08T05:35:28;100627.69;;;20.46;54.06
62881;BME280;48969;49.934;8.596;2023-07-08T05:37:53;100624.06;;;20.55;53.70
62881;BME280;48969;49.934;8.596;2023-07-08T05:40:18;100623.47;;;20.61;53.38
62881;BME280;48969;49.934;8.596;2023-07-08T05:42:44;100624.53;;;20.68;53.32
62881;BME280;48969;49.934;8.596;2023-07-08T05:45:09;100632.31;;;20.72;53.14
62881;BME280;48969;49.934;8.596;2023-07-08T05:47:36;100637.94;;;20.78;53.19
62881;BME280;48969;49.934;8.596;2023-07-08T05:50:01;100625.91;;;20.91;52.12
62881;BME280;48969;49.934;8.596;2023-07-08T05:52:27;100622.97;;;21.02;51.64
62881;BME280;48969;49.934;8.596;2023-07-08T05:54:52;100627.19;;;21.04;51.34
62881;BME280;48969;49.934;8.596;2023-07-08T05:57:17;100628.81;;;21.15;51.19
62881;BME280;48969;49.934;8.596;2023-07-08T05:59:43;100625.38;;;21.31;50.39
62881;BME280;48969;49.934;8.596;2023-07-08T06:02:10;100624.81;;;21.45;50.48
62881;BME280;48969;49.934;8.596;2023-07-08T06:04:35;100625.00;;;21.52;50.15
62881;BME280;48969;49.934;8.596;2023-07-08T06:07:00;100631.19;;;21.70;50.67
62881;BME280;48969;49.934;8.596;2023-07-08T06:09:26;100627.00;;;21.76;49.36
62881;BME280;48969;49.934;8.596;2023-07-08T06:11:51;100632.94;;;21.88;49.45
62881;BME280;48969;49.934;8.596;2023-07-08T06:14:16;100651.00;;;21.87;50.96
62881;BME280;48969;49.934;8.596;2023-07-08T06:16:42;100659.47;;;21.92;50.62
62881;BME280;48969;49.934;8.596;2023-07-08T06:19:08;100646.50;;;22.04;50.44
62881;BME280;48969;49.934;8.596;2023-07-08T06:21:33;100654.91;;;21.93;51.30
62881;BME280;48969;49.934;8.596;2023-07-08T06:23:58;100651.38;;;22.01;51.81
62881;BME280;48969;49.934;8.596;2023-07-08T06:26:23;100626.81;;;22.20;49.03
62881;BME280;48969;49.934;8.596;2023-07-08T06:28:49;100641.50;;;22.18;49.99
62881;BME280;48969;49.934;8.596;2023-07-08T06:31:14;100625.81;;;22.21;49.63
62881;BME280;48969;49.934;8.596;2023-07-08T06:33:39;100635.41;;;22.16;50.33
62881;BME280;48969;49.934;8.596;2023-07-08T06:36:05;100640.13;;;22.13;50.70
62881;BME280;48969;49.934;8.596;2023-07-08T06:38:32;100642.34;;;22.18;50.98
62881;BME280;48969;49.934;8.596;2023-07-08T06:40:57;100637.63;;;22.20;50.69
62881;BME280;48969;49.934;8.596;2023-07-08T06:43:22;100635.75;;;22.21;50.50
62881;BME280;48969;49.934;8.596;2023-07-08T06:45:47;100638.44;;;22.21;51.06
62881;BME280;48969;49.934;8.596;2023-07-08T06:48:13;100637.69;;;22.28;50.96
62881;BME280;48969;49.934;8.596;2023-07-08T06:50:38;100653.78;;;22.12;52.33
62881;BME280;48969;49.934;8.596;2023-07-08T06:53:03;100655.63;;;22.03;53.52
62881;BME280;48969;49.934;8.596;2023-07-08T06:55:28;100656.34;;;22.13;52.50
62881;BME280;48969;49.934;8.596;2023-07-08T06:57:55;100647.81;;;22.26;51.87
62881;BME280;48969;49.934;8.596;2023-07-08T07:00:20;100642.22;;;22.28;51.09
62881;BME280;48969;49.934;8.596;2023-07-08T07:02:45;100656.06;;;22.25;51.28
62881;BME280;48969;49.934;8.596;2023-07-08T07:05:11;100673.94;;;22.26;52.53
62881;BME280;48969;49.934;8.596;2023-07-08T07:07:36;100698.84;;;22.11;53.86
62881;BME280;48969;49.934;8.596;2023-07-08T07:10:02;100720.47;;;22.11;54.08
62881;BME280;48969;49.934;8.596;2023-07-08T07:12:28;100697.47;;;22.33;52.64
62881;BME280;48969;49.934;8.596;2023-07-08T07:14:53;100695.81;;;22.49;51.07
62881;BME280;48969;49.934;8.596;2023-07-08T07:17:20;100718.06;;;22.34;52.97
62881;BME280;48969;49.934;8.596;2023-07-08T07:19:46;100726.13;;;22.26;54.92
62881;BME280;48969;49.934;8.596;2023-07-08T07:22:11;100723.22;;;22.20;55.79
62881;BME280;48969;49.934;8.596;2023-07-08T07:24:37;100701.84;;;22.34;53.10
62881;BME280;48969;49.934;8.596;2023-07-08T07:27:02;100706.28;;;22.52;52.48
62881;BME280;48969;49.934;8.596;2023-07-08T07:29:27;100708.38;;;22.74;51.94
62881;BME280;48969;49.934;8.596;2023-07-08T07:31:53;100715.19;;;23.03;51.34
62881;BME280;48969;49.934;8.596;2023-07-08T07:34:19;100721.06;;;22.90;51.85
62881;BME280;48969;49.934;8.596;2023-07-08T07:36:45;100723.06;;;22.80;52.15
62881;BME280;48969;49.934;8.596;2023-07-08T07:39:10;100728.47;;;22.80;52.03
62881;BME280;48969;49.934;8.596;2023-07-08T07:41:35;100723.41;;;22.77;52.07
62881;BME280;48969;49.934;8.596;2023-07-08T07:44:01;100719.34;;;22.73;51.72
62881;BME280;48969;49.934;8.596;2023-07-08T07:46:26;100733.88;;;22.72;51.60
62881;BME280;48969;49.934;8.596;2023-07-08T07:48:51;100740.47;;;22.77;51.71
62881;BME280;48969;49.934;8.596;2023-07-08T07:51:16;100729.69;;;22.86;52.12
62881;BME280;48969;49.934;8.596;2023-07-08T07:53:42;100718.25;;;23.08;51.51
62881;BME280;48969;49.934;8.596;2023-07-08T07:56:07;100717.88;;;23.03;50.44
62881;BME280;48969;49.934;8.596;2023-07-08T07:58:33;100723.47;;;23.10;50.51
62881;BME280;48969;49.934;8.596;2023-07-08T08:00:59;100723.16;;;23.29;50.33
62881;BME280;48969;49.934;8.596;2023-07-08T08:03:24;100733.78;;;23.39;50.33
62881;BME280;48969;49.934;8.596;2023-07-08T08:05:50;100735.78;;;23.53;50.64
62881;BME280;48969;49.934;8.596;2023-07-08T08:08:15;100730.53;;;23.68;50.07
62881;BME280;48969;49.934;8.596;2023-07-08T08:10:42;100729.88;;;23.66;49.42
62881;BME280;48969;49.934;8.596;2023-07-08T08:13:07;100728.31;;;23.72;49.42
62881;BME280;48969;49.934;8.596;2023-07-08T08:15:33;100718.97;;;23.99;48.42
62881;BME280;48969;49.934;8.596;2023-07-08T08:18:02;100728.28;;;23.96;48.94
62881;BME280;48969;49.934;8.596;2023-07-08T08:20:28;100718.66;;;24.02;48.44
62881;BME280;48969;49.934;8.596;2023-07-08T08:22:54;100719.78;;;24.08;47.58
62881;BME280;48969;49.934;8.596;2023-07-08T08:25:21;100721.22;;;24.27;48.02
62881;BME280;48969;49.934;8.596;2023-07-08T08:27:46;100718.00;;;24.31;47.79
62881;BME280;48969;49.934;8.596;2023-07-08T08:30:12;100729.19;;;24.28;48.71
62881;BME280;48969;49.934;8.596;2023-07-08T08:32:37;100722.84;;;24.52;48.01
62881;BME280;48969;49.934;8.596;2023-07-08T08:35:03;100724.38;;;24.47;47.56
62881;BME280;48969;49.934;8.596;2023-07-08T08:37:29;100696.72;;;24.59;44.77
62881;BME280;48969;49.934;8.596;2023-07-08T08:39:54;100712.44;;;24.64;45.63
62881;BME280;48969;49.934;8.596;2023-07-08T08:42:34;100717.91;;;24.56;46.14
62881;BME280;48969;49.934;8.596;2023-07-08T08:45:01;100718.81;;;24.48;47.26
62881;BME280;48969;49.934;8.596;2023-07-08T08:47:38;100735.38;;;24.53;48.37
62881;BME280;48969;49.934;8.596;2023-07-08T08:50:28;100715.88;;;24.58;46.75
62881;BME280;48969;49.934;8.596;2023-07-08T08:52:56;100731.81;;;24.45;48.71
62881;BME280;48969;49.934;8.596;2023-07-08T08:55:22;100718.81;;;24.48;47.09
62881;BME280;48969;49.934;8.596;2023-07-08T09:00:33;100688.28;;;24.46;45.08
62881;BME280;48969;49.934;8.596;2023-07-08T09:03:16;100690.94;;;24.62;44.59
62881;BME280;48969;49.934;8.596;2023-07-08T09:05:44;100680.88;;;24.94;43.68
62881;BME280;48969;49.934;8.596;2023-07-08T09:08:30;100690.22;;;24.92;44.41
62881;BME280;48969;49.934;8.596;2023-07-08T09:11:01;100684.63;;;24.93;44.18
62881;BME280;48969;49.934;8.596;2023-07-08T09:13:33;100686.59;;;25.22;43.90
62881;BME280;48969;49.934;8.596;2023-07-08T09:19:08;100698.31;;;25.23;45.17
62881;BME280;48969;49.934;8.596;2023-07-08T09:21:59;100687.97;;;25.41;44.65
62881;BME280;48969;49.934;8.596;2023-07-08T09:24:49;100655.97;;;25.96;41.94
62881;BME280;48969;49.934;8.596;2023-07-08T09:27:16;100658.88;;;25.95;42.36
62881;BME280;48969;49.934;8.596;2023-07-08T09:29:41;100662.69;;;26.15;42.55
62881;BME280;48969;49.934;8.596;2023-07-08T09:32:24;100677.31;;;25.84;43.47
62881;BME280;48969;49.934;8.596;2023-07-08T09:34:51;100673.19;;;25.74;43.02
62881;BME280;48969;49.934;8.596;2023-07-08T09:37:37;100647.03;;;25.73;41.63
62881;BME280;48969;49.934;8.596;2023-07-08T09:40:32;100644.47;;;25.94;42.17
62881;BME280;48969;49.934;8.596;2023-07-08T09:43:02;100654.94;;;25.97;42.11
62881;BME280;48969;49.934;8.596;2023-07-08T09:45:28;100643.41;;;26.10;41.29
62881;BME280;48969;49.934;8.596;2023-07-08T09:47:55;100651.56;;;26.10;42.21
62881;BME280;48969;49.934;8.596;2023-07-08T09:50:25;100659.03;;;26.23;42.83
62881;BME280;48969;49.934;8.596;2023-07-08T09:52:53;100641.69;;;26.82;40.98
62881;BME280;48969;49.934;8.596;2023-07-08T09:55:19;100630.03;;;26.88;40.73
62881;BME280;48969;49.934;8.596;2023-07-08T09:57:47;100628.78;;;26.90;40.88
62881;BME280;48969;49.934;8.596;2023-07-08T10:00:16;100626.78;;;26.99;40.76
62881;BME280;48969;49.934;8.596;2023-07-08T10:02:46;100612.81;;;27.09;40.39
62881;BME280;48969;49.934;8.596;2023-07-08T10:07:45;100613.88;;;27.71;40.32
62881;BME280;48969;49.934;8.596;2023-07-08T10:10:15;100623.00;;;27.57;41.02
62881;BME280;48969;49.934;8.596;2023-07-08T10:12:43;100629.16;;;27.30;41.76
62881;BME280;48969;49.934;8.596;2023-07-08T10:15:26;100631.56;;;26.97;41.97
62881;BME280;48969;49.934;8.596;2023-07-08T10:17:53;100619.13;;;27.38;40.68
62881;BME280;48969;49.934;8.596;2023-07-08T10:20:20;100627.78;;;27.20;41.87
62881;BME280;48969;49.934;8.596;2023-07-08T10:23:05;100623.75;;;27.37;40.89
62881;BME280;48969;49.934;8.596;2023-07-08T10:25:56;100617.25;;;27.80;40.69
62881;BME280;48969;49.934;8.596;2023-07-08T10:28:37;100619.78;;;27.81;41.38
62881;BME280;48969;49.934;8.596;2023-07-08T10:31:30;100614.84;;;27.98;40.86
62881;BME280;48969;49.934;8.596;2023-07-08T10:34:07;100623.50;;;27.67;41.21
62881;BME280;48969;49.934;8.596;2023-07-08T10:36:47;100616.69;;;27.84;41.25
62881;BME280;48969;49.934;8.596;2023-07-08T10:45:07;100612.72;;;27.87;41.55
62881;BME280;48969;49.934;8.596;2023-07-08T10:47:38;100589.03;;;28.55;39.32
62881;BME280;48969;49.934;8.596;2023-07-08T10:50:33;100607.31;;;28.00;40.62
62881;BME280;48969;49.934;8.596;2023-07-08T10:58:39;100599.75;;;28.77;40.28
62881;BME280;48969;49.934;8.596;2023-07-08T11:01:34;100585.69;;;29.00;38.69
62881;BME280;48969;49.934;8.596;2023-07-08T11:04:15;100576.88;;;29.18;38.27
62881;BME280;48969;49.934;8.596;2023-07-08T11:09:24;100584.00;;;29.19;38.74
62881;BME280;48969;49.934;8.596;2023-07-08T11:12:01;100597.19;;;29.42;39.74
62881;BME280;48969;49.934;8.596;2023-07-08T11:14:38;100565.97;;;29.83;37.59
62881;BME280;48969;49.934;8.596;2023-07-08T11:19:50;100553.63;;;30.12;36.44
62881;BME280;48969;49.934;8.596;2023-07-08T11:22:20;100556.31;;;29.80;37.24
62881;BME280;48969;49.934;8.596;2023-07-08T11:24:49;100561.66;;;29.55;37.49
62881;BME280;48969;49.934;8.596;2023-07-08T11:27:24;100584.44;;;29.16;39.47
62881;BME280;48969;49.934;8.596;2023-07-08T11:29:56;100571.81;;;29.22;38.63
62881;BME280;48969;49.934;8.596;2023-07-08T11:32:26;100570.25;;;29.59;38.16
62881;BME280;48969;49.934;8.596;2023-07-08T11:34:53;100577.66;;;29.52;39.16
62881;BME280;48969;49.934;8.596;2023-07-08T11:37:19;100542.94;;;29.59;37.31
62881;BME280;48969;49.934;8.596;2023-07-08T11:39:53;100546.94;;;29.56;37.27
62881;BME280;48969;49.934;8.596;2023-07-08T11:44:53;100554.75;;;29.39;37.83
62881;BME280;48969;49.934;8.596;2023-07-08T11:47:35;100547.03;;;29.03;38.64
62881;BME280;48969;49.934;8.596;2023-07-08T11:50:02;100558.38;;;29.27;38.33
62881;BME280;48969;49.934;8.596;2023-07-08T11:52:29;100557.56;;;28.99;38.73
62881;BME280;48969;49.934;8.596;2023-07-08T11:54:59;100562.16;;;29.06;39.42
62881;BME280;48969;49.934;8.596;2023-07-08T11:57:37;100548.66;;;29.44;38.38
62881;BME280;48969;49.934;8.596;2023-07-08T12:00:16;100537.34;;;29.40;37.78
62881;BME280;48969;49.934;8.596;2023-07-08T12:02:54;100558.56;;;29.38;38.62
62881;BME280;48969;49.934;8.596;2023-07-08T12:05:37;100520.50;;;29.50;36.34
62881;BME280;48969;49.934;8.596;2023-07-08T12:08:13;100533.81;;;29.27;38.10
62881;BME280;48969;49.934;8.596;2023-07-08T12:10:41;100544.91;;;29.38;38.36
62881;BME280;48969;49.934;8.596;2023-07-08T12:13:13;100562.31;;;29.44;39.18
62881;BME280;48969;49.934;8.596;2023-07-08T12:15:38;100542.13;;;29.52;38.36
62881;BME280;48969;49.934;8.596;2023-07-08T12:18:12;100528.44;;;29.65;37.48
62881;BME280;48969;49.934;8.596;2023-07-08T12:20:40;100556.66;;;29.46;39.05
62881;BME280;48969;49.934;8.596;2023-07-08T12:23:13;100522.06;;;29.78;37.02
62881;BME280;48969;49.934;8.596;2023-07-08T12:25:38;100527.53;;;29.78;36.45
62881;BME280;48969;49.934;8.596;2023-07-08T12:28:04;100536.88;;;29.50;38.39
62881;BME280;48969;49.934;8.596;2023-07-08T12:30:31;100519.50;;;29.38;37.31
62881;BME280;48969;49.934;8.596;2023-07-08T12:32:58;100520.22;;;29.65;37.24
62881;BME280;48969;49.934;8.596;2023-07-08T12:35:27;100505.47;;;29.79;35.99
62881;BME280;48969;49.934;8.596;2023-07-08T12:37:58;100482.91;;;29.91;35.26
62881;BME280;48969;49.934;8.596;2023-07-08T12:40:27;100471.28;;;30.02;34.74
62881;BME280;48969;49.934;8.596;2023-07-08T12:42:53;100476.50;;;30.03;34.77
62881;BME280;48969;49.934;8.596;2023-07-08T12:45:20;100516.78;;;29.83;36.96
62881;BME280;48969;49.934;8.596;2023-07-08T12:47:47;100518.66;;;30.21;37.09
62881;BME280;48969;49.934;8.596;2023-07-08T12:50:13;100526.28;;;29.67;38.22
62881;BME280;48969;49.934;8.596;2023-07-08T12:52:40;100528.03;;;29.55;38.66
62881;BME280;48969;49.934;8.596;2023-07-08T12:55:09;100521.78;;;29.41;38.39
62881;BME280;48969;49.934;8.596;2023-07-08T12:57:35;100511.09;;;29.26;37.50
62881;BME280;48969;49.934;8.596;2023-07-08T13:00:01;100509.13;;;29.47;37.41
62881;BME280;48969;49.934;8.596;2023-07-08T13:02:27;100541.38;;;29.18;39.34
62881;BME280;48969;49.934;8.596;2023-07-08T13:04:59;100534.47;;;29.09;39.01
62881;BME280;48969;49.934;8.596;2023-07-08T13:07:41;100550.22;;;28.93;40.27
62881;BME280;48969;49.934;8.596;2023-07-08T13:10:15;100540.75;;;28.89;39.63
62881;BME280;48969;49.934;8.596;2023-07-08T13:12:41;100512.38;;;29.24;38.52
62881;BME280;48969;49.934;8.596;2023-07-08T13:15:14;100512.28;;;29.50;38.23
62881;BME280;48969;49.934;8.596;2023-07-08T13:17:41;100530.16;;;29.46;39.47
62881;BME280;48969;49.934;8.596;2023-07-08T13:20:14;100528.22;;;29.60;39.01
62881;BME280;48969;49.934;8.596;2023-07-08T13:22:40;100490.41;;;30.02;37.02
62881;BME280;48969;49.934;8.596;2023-07-08T13:25:14;100501.34;;;30.02;37.43
62881;BME280;48969;49.934;8.596;2023-07-08T13:27:41;100505.84;;;29.83;37.21
62881;BME280;48969;49.934;8.596;2023-07-08T13:30:27;100521.81;;;29.34;39.18